sensor_id;sensor_type;location;lat;lon;timestamp;pressure;altitude;pressure_sealevel;temperature;humidity
61119;BME280;51448;51.660;5.824;2023-05-01T00:01:19;101670.72;;;11.48;77.49
61119;BME280;51448;51.660;5.824;2023-05-01T00:03:46;101671.59;;;11.48;77.34
61119;BME280;51448;51.660;5.824;2023-05-01T00:06:14;101669.84;;;11.47;77.53
61119;BME280;51448;51.660;5.824;2023-05-01T00:08:42;101661.94;;;11.47;77.65
61119;BME280;51448;51.660;5.824;2023-05-01T00:11:10;101660.25;;;11.45;77.66
61119;BME280;51448;51.660;5.824;2023-05-01T00:13:38;101653.22;;;11.45;77.82
61119;BME280;51448;51.660;5.824;2023-05-01T00:16:10;101651.47;;;11.44;77.80
61119;BME280;51448;51.660;5.824;2023-05-01T00:18:38;101644.47;;;11.42;77.75
61119;BME280;51448;51.660;5.824;2023-05-01T00:21:06;101639.22;;;11.42;77.91
61119;BME280;51448;51.660;5.824;2023-05-01T00:23:34;101632.22;;;11.41;77.86
61119;BME280;51448;51.660;5.824;2023-05-01T00:26:02;101630.47;;;11.40;77.80
61119;BME280;51448;51.660;5.824;2023-05-01T00:28:30;101633.94;;;11.42;77.58
61119;BME280;51448;51.660;5.824;2023-05-01T00:30:58;101630.44;;;11.43;77.55
61119;BME280;51448;51.660;5.824;2023-05-01T00:33:25;101621.63;;;11.44;77.46
61119;BME280;51448;51.660;5.824;2023-05-01T00:35:53;101630.34;;;11.46;77.37
61119;BME280;51448;51.660;5.824;2023-05-01T00:38:22;101625.09;;;11.46;77.38
61119;BME280;51448;51.660;5.824;2023-05-01T00:40:50;101625.97;;;11.46;77.50
61119;BME280;51448;51.660;5.824;2023-05-01T00:43:18;101621.56;;;11.47;77.53
61119;BME280;51448;51.660;5.824;2023-05-01T00:45:45;101614.56;;;11.46;77.31
61119;BME280;51448;51.660;5.824;2023-05-01T00:48:13;101611.03;;;11.47;77.21
61119;BME280;51448;51.660;5.824;2023-05-01T00:50:43;101608.41;;;11.47;77.39
61119;BME280;51448;51.660;5.824;2023-05-01T00:53:11;101607.53;;;11.46;77.29
61119;BME280;51448;51.660;5.824;2023-05-01T00:55:40;101605.78;;;11.47;77.73
61119;BME280;51448;51.660;5.824;2023-05-01T00:58:10;101598.75;;;11.46;77.59
61119;BME280;51448;51.660;5.824;2023-05-01T01:00:40;101596.19;;;11.43;77.64
61119;BME280;51448;51.660;5.824;2023-05-01T01:03:08;101599.72;;;11.42;77.81
61119;BME280;51448;51.660;5.824;2023-05-01T01:05:44;101589.16;;;11.43;77.94
61119;BME280;51448;51.660;5.824;2023-05-01T01:15:06;101573.47;;;11.37;78.00
61119;BME280;51448;51.660;5.824;2023-05-01T01:20:42;101564.81;;;11.32;77.89
61119;BME280;51448;51.660;5.824;2023-05-01T01:35:41;101555.28;;;11.23;77.92
61119;BME280;51448;51.660;5.824;2023-05-01T01:38:29;101550.97;;;11.21;77.79
61119;BME280;51448;51.660;5.824;2023-05-01T01:41:11;101548.34;;;11.19;77.87
61119;BME280;51448;51.660;5.824;2023-05-01T01:43:54;101550.09;;;11.20;77.66
61119;BME280;51448;51.660;5.824;2023-05-01T01:46:32;101539.56;;;11.20;78.11
61119;BME280;51448;51.660;5.824;2023-05-01T01:49:06;101528.19;;;11.20;77.75
61119;BME280;51448;51.660;5.824;2023-05-01T01:51:40;101529.91;;;11.19;78.05
61119;BME280;51448;51.660;5.824;2023-05-01T01:54:10;101525.56;;;11.18;78.12
61119;BME280;51448;51.660;5.824;2023-05-01T01:56:42;101524.66;;;11.19;78.14
61119;BME280;51448;51.660;5.824;2023-05-01T01:59:12;101528.19;;;11.18;78.20
61119;BME280;51448;51.660;5.824;2023-05-01T02:01:43;101518.50;;;11.20;78.30
61119;BME280;51448;51.660;5.824;2023-05-01T02:04:14;101519.38;;;11.19;78.17
61119;BME280;51448;51.660;5.824;2023-05-01T02:06:44;101522.03;;;11.19;78.11
61119;BME280;51448;51.660;5.824;2023-05-01T02:09:15;101527.28;;;11.19;77.95
61119;BME280;51448;51.660;5.824;2023-05-01T02:11:45;101520.31;;;11.18;78.28
61119;BME280;51448;51.660;5.824;2023-05-01T02:14:17;101510.66;;;11.17;78.30
61119;BME280;51448;51.660;5.824;2023-05-01T02:16:46;101508.91;;;11.18;78.66
61119;BME280;51448;51.660;5.824;2023-05-01T02:19:15;101508.91;;;11.18;78.63
61119;BME280;51448;51.660;5.824;2023-05-01T02:21:45;101507.16;;;11.17;78.47
61119;BME280;51448;51.660;5.824;2023-05-01T02:24:16;101500.13;;;11.17;78.80
61119;BME280;51448;51.660;5.824;2023-05-01T02:26:53;101497.56;;;11.14;78.92
61119;BME280;51448;51.660;5.824;2023-05-01T02:29:27;101495.03;;;11.10;79.05
61119;BME280;51448;51.660;5.824;2023-05-01T02:31:54;101501.19;;;11.07;79.29
61119;BME280;51448;51.660;5.824;2023-05-01T02:34:23;101491.63;;;11.03;79.52
61119;BME280;51448;51.660;5.824;2023-05-01T02:36:50;101497.81;;;11.00;79.15
61119;BME280;51448;51.660;5.824;2023-05-01T02:39:18;101488.22;;;10.98;78.95
61119;BME280;51448;51.660;5.824;2023-05-01T02:41:47;101485.63;;;10.95;79.14
61119;BME280;51448;51.660;5.824;2023-05-01T02:44:17;101487.44;;;10.93;79.49
61119;BME280;51448;51.660;5.824;2023-05-01T02:46:48;101483.97;;;10.91;79.53
61119;BME280;51448;51.660;5.824;2023-05-01T02:49:19;101477.97;;;10.84;78.82
61119;BME280;51448;51.660;5.824;2023-05-01T02:51:48;101480.59;;;10.82;79.24
61119;BME280;51448;51.660;5.824;2023-05-01T02:54:18;101472.69;;;10.84;79.62
61119;BME280;51448;51.660;5.824;2023-05-01T02:56:47;101471.81;;;10.85;79.64
61119;BME280;51448;51.660;5.824;2023-05-01T02:59:14;101463.00;;;10.86;80.14
61119;BME280;51448;51.660;5.824;2023-05-01T03:01:42;101462.16;;;10.85;80.54
61119;BME280;51448;51.660;5.824;2023-05-01T03:04:10;101464.81;;;10.82;80.13
61119;BME280;51448;51.660;5.824;2023-05-01T03:06:39;101457.84;;;10.80;80.46
61119;BME280;51448;51.660;5.824;2023-05-01T03:09:07;101453.50;;;10.79;80.78
61119;BME280;51448;51.660;5.824;2023-05-01T03:11:36;101459.66;;;10.78;80.97
61119;BME280;51448;51.660;5.824;2023-05-01T03:14:04;101457.00;;;10.79;80.81
61119;BME280;51448;51.660;5.824;2023-05-01T03:16:32;101449.97;;;10.80;80.74
61119;BME280;51448;51.660;5.824;2023-05-01T03:19:00;101451.75;;;10.79;80.56
61119;BME280;51448;51.660;5.824;2023-05-01T03:21:28;101446.50;;;10.78;80.46
61119;BME280;51448;51.660;5.824;2023-05-01T03:23:56;101445.63;;;10.77;80.84
61119;BME280;51448;51.660;5.824;2023-05-01T03:26:23;101440.41;;;10.74;80.80
61119;BME280;51448;51.660;5.824;2023-05-01T03:28:52;101436.94;;;10.72;81.13
61119;BME280;51448;51.660;5.824;2023-05-01T03:31:20;101436.16;;;10.69;80.97
61119;BME280;51448;51.660;5.824;2023-05-01T03:33:49;101434.50;;;10.64;81.47
61119;BME280;51448;51.660;5.824;2023-05-01T03:36:16;101427.53;;;10.60;81.72
61119;BME280;51448;51.660;5.824;2023-05-01T03:38:46;101427.69;;;10.53;81.84
61119;BME280;51448;51.660;5.824;2023-05-01T03:41:33;101427.78;;;10.46;82.04
61119;BME280;51448;51.660;5.824;2023-05-01T03:44:14;101420.84;;;10.42;82.24
61119;BME280;51448;51.660;5.824;2023-05-01T03:46:43;101416.53;;;10.38;82.70
61119;BME280;51448;51.660;5.824;2023-05-01T03:49:17;101415.75;;;10.33;82.58
61119;BME280;51448;51.660;5.824;2023-05-01T03:51:47;101414.97;;;10.30;82.70
61119;BME280;51448;51.660;5.824;2023-05-01T03:54:15;101413.19;;;10.30;83.00
61119;BME280;51448;51.660;5.824;2023-05-01T03:56:57;101411.41;;;10.29;82.87
61119;BME280;51448;51.660;5.824;2023-05-01T03:59:25;101413.19;;;10.30;82.71
61119;BME280;51448;51.660;5.824;2023-05-01T04:01:53;101414.03;;;10.31;83.00
61119;BME280;51448;51.660;5.824;2023-05-01T04:04:21;101414.00;;;10.34;82.64
61119;BME280;51448;51.660;5.824;2023-05-01T04:06:57;101410.50;;;10.33;82.71
61119;BME280;51448;51.660;5.824;2023-05-01T04:09:25;101417.50;;;10.34;82.62
61119;BME280;51448;51.660;5.824;2023-05-01T04:11:53;101411.41;;;10.32;83.41
61119;BME280;51448;51.660;5.824;2023-05-01T04:14:20;101402.66;;;10.30;82.76
61119;BME280;51448;51.660;5.824;2023-05-01T04:16:49;101406.13;;;10.32;82.84
61119;BME280;51448;51.660;5.824;2023-05-01T04:19:18;101407.06;;;10.30;83.58
61119;BME280;51448;51.660;5.824;2023-05-01T04:21:47;101406.19;;;10.27;82.89
61119;BME280;51448;51.660;5.824;2023-05-01T04:24:14;101400.94;;;10.27;82.74
61119;BME280;51448;51.660;5.824;2023-05-01T04:26:43;101401.78;;;10.28;83.68
61119;BME280;51448;51.660;5.824;2023-05-01T04:29:10;101397.41;;;10.27;83.33
61119;BME280;51448;51.660;5.824;2023-05-01T04:31:38;101401.81;;;10.26;82.99
61119;BME280;51448;51.660;5.824;2023-05-01T04:34:08;101391.31;;;10.26;83.03
61119;BME280;51448;51.660;5.824;2023-05-01T04:36:37;101393.94;;;10.26;83.40
61119;BME280;51448;51.660;5.824;2023-05-01T04:39:05;101392.16;;;10.27;83.37
61119;BME280;51448;51.660;5.824;2023-05-01T04:41:33;101391.28;;;10.28;82.85
61119;BME280;51448;51.660;5.824;2023-05-01T04:44:01;101394.78;;;10.30;83.64
61119;BME280;51448;51.660;5.824;2023-05-01T04:46:29;101392.09;;;10.33;83.31
61119;BME280;51448;51.660;5.824;2023-05-01T04:48:57;101388.56;;;10.34;83.83
61119;BME280;51448;51.660;5.824;2023-05-01T04:51:25;101386.78;;;10.36;83.55
61119;BME280;51448;51.660;5.824;2023-05-01T04:53:54;101392.84;;;10.40;83.25
61119;BME280;51448;51.660;5.824;2023-05-01T04:56:25;101388.38;;;10.43;83.54
61119;BME280;51448;51.660;5.824;2023-05-01T04:58:59;101398.03;;;10.44;83.26
61119;BME280;51448;51.660;5.824;2023-05-01T05:01:28;101393.59;;;10.46;83.34
61119;BME280;51448;51.660;5.824;2023-05-01T05:03:58;101387.41;;;10.49;83.76
61119;BME280;51448;51.660;5.824;2023-05-01T05:06:27;101388.28;;;10.50;83.44
61119;BME280;51448;51.660;5.824;2023-05-01T05:08:54;101388.28;;;10.50;83.37
61119;BME280;51448;51.660;5.824;2023-05-01T05:11:24;101391.75;;;10.52;83.59
61119;BME280;51448;51.660;5.824;2023-05-01T05:14:02;101386.47;;;10.53;83.54
61119;BME280;51448;51.660;5.824;2023-05-01T05:16:33;101391.69;;;10.55;83.67
61119;BME280;51448;51.660;5.824;2023-05-01T05:19:01;101393.47;;;10.54;83.77
61119;BME280;51448;51.660;5.824;2023-05-01T05:21:34;101389.94;;;10.55;83.66
61119;BME280;51448;51.660;5.824;2023-05-01T05:24:03;101388.13;;;10.59;83.90
61119;BME280;51448;51.660;5.824;2023-05-01T05:26:32;101388.97;;;10.59;83.78
61119;BME280;51448;51.660;5.824;2023-05-01T05:29:02;101392.50;;;10.58;83.88
61119;BME280;51448;51.660;5.824;2023-05-01T05:31:30;101401.25;;;10.59;84.28
61119;BME280;51448;51.660;5.824;2023-05-01T05:33:58;101395.06;;;10.63;84.50
61119;BME280;51448;51.660;5.824;2023-05-01T05:36:26;101398.44;;;10.68;83.85
61119;BME280;51448;51.660;5.824;2023-05-01T05:38:55;101409.78;;;10.72;84.53
61119;BME280;51448;51.660;5.824;2023-05-01T05:41:23;101414.09;;;10.76;84.45
61119;BME280;51448;51.660;5.824;2023-05-01T05:43:55;101404.28;;;10.82;84.60
61119;BME280;51448;51.660;5.824;2023-05-01T05:46:24;101403.34;;;10.86;83.86
61119;BME280;51448;51.660;5.824;2023-05-01T05:48:55;101404.13;;;10.92;83.60
61119;BME280;51448;51.660;5.824;2023-05-01T05:51:27;101405.81;;;10.94;84.09
61119;BME280;51448;51.660;5.824;2023-05-01T05:53:56;101410.97;;;11.00;83.97
61119;BME280;51448;51.660;5.824;2023-05-01T05:56:24;101406.47;;;11.05;83.42
61119;BME280;51448;51.660;5.824;2023-05-01T05:58:51;101405.47;;;11.11;83.13
61119;BME280;51448;51.660;5.824;2023-05-01T06:01:20;101414.16;;;11.16;82.90
61119;BME280;51448;51.660;5.824;2023-05-01T06:03:47;101397.38;;;11.20;83.21
61119;BME280;51448;51.660;5.824;2023-05-01T06:06:16;101386.75;;;11.25;82.79
61119;BME280;51448;51.660;5.824;2023-05-01T06:08:43;101393.69;;;11.27;82.75
61119;BME280;51448;51.660;5.824;2023-05-01T06:11:12;101391.00;;;11.32;82.50
61119;BME280;51448;51.660;5.824;2023-05-01T06:13:40;101390.84;;;11.38;82.94
61119;BME280;51448;51.660;5.824;2023-05-01T06:16:08;101393.41;;;11.41;82.83
61119;BME280;51448;51.660;5.824;2023-05-01T06:18:36;101401.19;;;11.46;82.64
61119;BME280;51448;51.660;5.824;2023-05-01T06:21:05;101394.06;;;11.51;82.61
61119;BME280;51448;51.660;5.824;2023-05-01T06:23:33;101384.38;;;11.53;82.65
61119;BME280;51448;51.660;5.824;2023-05-01T06:26:23;101387.75;;;11.58;82.32
61119;BME280;51448;51.660;5.824;2023-05-01T06:28:51;101390.16;;;11.67;82.18
61119;BME280;51448;51.660;5.824;2023-05-01T06:31:19;101387.41;;;11.74;82.11
61119;BME280;51448;51.660;5.824;2023-05-01T06:33:51;101388.94;;;11.82;81.49
61119;BME280;51448;51.660;5.824;2023-05-01T06:36:26;101384.44;;;11.87;81.07
61119;BME280;51448;51.660;5.824;2023-05-01T06:38:54;101393.97;;;11.93;81.00
61119;BME280;51448;51.660;5.824;2023-05-01T06:41:22;101390.19;;;12.03;81.16
61119;BME280;51448;51.660;5.824;2023-05-01T06:43:51;101391.63;;;12.17;81.05
61119;BME280;51448;51.660;5.824;2023-05-01T06:46:19;101386.03;;;12.29;80.60
61119;BME280;51448;51.660;5.824;2023-05-01T06:48:47;101390.22;;;12.36;80.26
61119;BME280;51448;51.660;5.824;2023-05-01T06:51:15;101390.97;;;12.41;80.23
61119;BME280;51448;51.660;5.824;2023-05-01T06:53:42;101384.69;;;12.47;80.50
61119;BME280;51448;51.660;5.824;2023-05-01T06:56:10;101388.84;;;12.56;80.12
61119;BME280;51448;51.660;5.824;2023-05-01T06:58:38;101388.56;;;12.65;80.35
61119;BME280;51448;51.660;5.824;2023-05-01T07:01:06;101379.56;;;12.74;80.25
61119;BME280;51448;51.660;5.824;2023-05-01T07:03:33;101378.38;;;12.84;79.64
61119;BME280;51448;51.660;5.824;2023-05-01T07:06:01;101383.47;;;12.90;79.71
61119;BME280;51448;51.660;5.824;2023-05-01T07:08:29;101376.25;;;12.97;79.25
61119;BME280;51448;51.660;5.824;2023-05-01T07:10:57;101380.47;;;13.02;79.28
61119;BME280;51448;51.660;5.824;2023-05-01T07:13:25;101379.38;;;13.09;79.61
61119;BME280;51448;51.660;5.824;2023-05-01T07:15:53;101382.56;;;13.21;79.54
61119;BME280;51448;51.660;5.824;2023-05-01T07:18:21;101382.28;;;13.32;78.89
61119;BME280;51448;51.660;5.824;2023-05-01T07:20:49;101373.34;;;13.36;78.68
61119;BME280;51448;51.660;5.824;2023-05-01T07:23:17;101382.84;;;13.41;78.42
61119;BME280;51448;51.660;5.824;2023-05-01T07:25:44;101380.84;;;13.50;78.40
61119;BME280;51448;51.660;5.824;2023-05-01T07:28:12;101379.72;;;13.57;77.87
61119;BME280;51448;51.660;5.824;2023-05-01T07:30:40;101382.31;;;13.58;78.04
61119;BME280;51448;51.660;5.824;2023-05-01T07:33:08;101384.03;;;13.59;77.98
61119;BME280;51448;51.660;5.824;2023-05-01T07:35:35;101386.69;;;13.59;77.48
61119;BME280;51448;51.660;5.824;2023-05-01T07:38:03;101381.31;;;13.62;77.88
61119;BME280;51448;51.660;5.824;2023-05-01T07:40:32;101383.84;;;13.65;77.25
61119;BME280;51448;51.660;5.824;2023-05-01T07:43:00;101371.56;;;13.64;76.69
61119;BME280;51448;51.660;5.824;2023-05-01T07:45:29;101374.16;;;13.66;77.21
61119;BME280;51448;51.660;5.824;2023-05-01T07:47:57;101373.88;;;13.74;76.91
61119;BME280;51448;51.660;5.824;2023-05-01T07:50:25;101375.44;;;13.81;76.38
61119;BME280;51448;51.660;5.824;2023-05-01T07:52:53;101377.88;;;13.87;76.73
61119;BME280;51448;51.660;5.824;2023-05-01T07:55:21;101374.00;;;13.97;76.13
61119;BME280;51448;51.660;5.824;2023-05-01T07:57:49;101371.41;;;13.96;75.26
61119;BME280;51448;51.660;5.824;2023-05-01T08:00:18;101376.69;;;13.96;75.61
61119;BME280;51448;51.660;5.824;2023-05-01T08:02:46;101370.22;;;14.04;76.27
61119;BME280;51448;51.660;5.824;2023-05-01T08:05:14;101375.00;;;14.20;76.28
61119;BME280;51448;51.660;5.824;2023-05-01T08:07:42;101364.78;;;14.34;76.04
61119;BME280;51448;51.660;5.824;2023-05-01T08:10:10;101372.94;;;14.53;76.17
61119;BME280;51448;51.660;5.824;2023-05-01T08:12:37;101371.66;;;14.65;75.41
61119;BME280;51448;51.660;5.824;2023-05-01T08:18:18;101371.84;;;14.84;74.86
61119;BME280;51448;51.660;5.824;2023-05-01T08:20:48;101369.91;;;14.89;74.05
61119;BME280;51448;51.660;5.824;2023-05-01T08:23:16;101371.34;;;14.98;73.95
61119;BME280;51448;51.660;5.824;2023-05-01T08:25:45;101360.56;;;15.02;72.81
61119;BME280;51448;51.660;5.824;2023-05-01T08:28:18;101357.69;;;15.08;72.81
61119;BME280;51448;51.660;5.824;2023-05-01T08:30:49;101368.16;;;15.12;71.94
61119;BME280;51448;51.660;5.824;2023-05-01T08:33:17;101359.22;;;15.14;72.30
61119;BME280;51448;51.660;5.824;2023-05-01T08:35:45;101365.75;;;15.27;73.14
61119;BME280;51448;51.660;5.824;2023-05-01T08:38:13;101355.19;;;15.49;72.33
61119;BME280;51448;51.660;5.824;2023-05-01T08:40:45;101359.72;;;15.68;71.96
61119;BME280;51448;51.660;5.824;2023-05-01T08:43:17;101362.84;;;15.79;71.52
61119;BME280;51448;51.660;5.824;2023-05-01T08:45:46;101354.63;;;15.85;71.61
61119;BME280;51448;51.660;5.824;2023-05-01T08:48:16;101365.59;;;15.98;71.91
61119;BME280;51448;51.660;5.824;2023-05-01T08:50:47;101363.00;;;16.17;71.91
61119;BME280;51448;51.660;5.824;2023-05-01T08:53:17;101364.25;;;16.49;70.18
61119;BME280;51448;51.660;5.824;2023-05-01T08:55:47;101366.47;;;16.79;69.94
61119;BME280;51448;51.660;5.824;2023-05-01T08:58:17;101362.63;;;17.05;69.75
61119;BME280;51448;51.660;5.824;2023-05-01T09:00:48;101364.06;;;17.32;69.41
61119;BME280;51448;51.660;5.824;2023-05-01T09:03:17;101365.31;;;17.61;69.12
61119;BME280;51448;51.660;5.824;2023-05-01T09:05:46;101365.88;;;17.86;68.54
61119;BME280;51448;51.660;5.824;2023-05-01T09:08:15;101354.28;;;18.05;67.86
61119;BME280;51448;51.660;5.824;2023-05-01T09:10:44;101362.31;;;18.21;65.80
61119;BME280;51448;51.660;5.824;2023-05-01T09:13:15;101366.47;;;18.26;64.33
61119;BME280;51448;51.660;5.824;2023-05-01T09:15:42;101366.22;;;18.31;64.90
61119;BME280;51448;51.660;5.824;2023-05-01T09:18:10;101360.44;;;18.40;65.24
61119;BME280;51448;51.660;5.824;2023-05-01T09:20:39;101367.41;;;18.43;63.71
61119;BME280;51448;51.660;5.824;2023-05-01T09:23:08;101358.25;;;18.31;63.99
61119;BME280;51448;51.660;5.824;2023-05-01T09:25:36;101355.03;;;18.24;64.58
61119;BME280;51448;51.660;5.824;2023-05-01T09:28:04;101355.91;;;18.25;64.56
61119;BME280;51448;51.660;5.824;2023-05-01T09:30:37;101354.00;;;18.27;64.11
61119;BME280;51448;51.660;5.824;2023-05-01T09:33:13;101358.09;;;18.34;63.58
61119;BME280;51448;51.660;5.824;2023-05-01T09:38:21;101356.50;;;18.47;63.01
61119;BME280;51448;51.660;5.824;2023-05-01T09:40:52;101350.16;;;18.50;62.68
61119;BME280;51448;51.660;5.824;2023-05-01T09:43:26;101356.16;;;18.54;62.29
61119;BME280;51448;51.660;5.824;2023-05-01T09:46:00;101354.22;;;18.57;61.36
61119;BME280;51448;51.660;5.824;2023-05-01T09:48:36;101344.25;;;18.61;62.11
61119;BME280;51448;51.660;5.824;2023-05-01T09:51:28;101353.69;;;18.84;63.29
61119;BME280;51448;51.660;5.824;2023-05-01T09:53:59;101352.00;;;18.99;62.48
61119;BME280;51448;51.660;5.824;2023-05-01T09:56:29;101351.22;;;19.13;62.70
61119;BME280;51448;51.660;5.824;2023-05-01T09:59:15;101352.78;;;19.33;61.14
61119;BME280;51448;51.660;5.824;2023-05-01T10:01:45;101354.75;;;19.29;60.53
61119;BME280;51448;51.660;5.824;2023-05-01T10:04:15;101352.00;;;19.30;60.09
61119;BME280;51448;51.660;5.824;2023-05-01T10:06:43;101353.06;;;19.28;60.47
61119;BME280;51448;51.660;5.824;2023-05-01T10:09:26;101359.81;;;19.34;61.04
61119;BME280;51448;51.660;5.824;2023-05-01T10:11:55;101354.06;;;19.41;60.86
61119;BME280;51448;51.660;5.824;2023-05-01T10:14:24;101352.44;;;19.55;60.90
61119;BME280;51448;51.660;5.824;2023-05-01T10:16:53;101353.50;;;19.66;59.56
61119;BME280;51448;51.660;5.824;2023-05-01T10:19:24;101351.28;;;19.75;58.87
61119;BME280;51448;51.660;5.824;2023-05-01T10:21:52;101346.47;;;19.81;58.50
61119;BME280;51448;51.660;5.824;2023-05-01T10:24:20;101342.19;;;19.93;58.45
61119;BME280;51448;51.660;5.824;2023-05-01T10:26:49;101348.63;;;20.05;58.44
61119;BME280;51448;51.660;5.824;2023-05-01T10:29:20;101345.22;;;20.17;58.22
61119;BME280;51448;51.660;5.824;2023-05-01T10:31:50;101346.38;;;20.27;57.71
61119;BME280;51448;51.660;5.824;2023-05-01T10:34:19;101346.97;;;20.33;56.00
61119;BME280;51448;51.660;5.824;2023-05-01T10:37:01;101350.50;;;20.33;55.76
61119;BME280;51448;51.660;5.824;2023-05-01T10:39:34;101347.81;;;20.33;56.02
61119;BME280;51448;51.660;5.824;2023-05-01T10:44:37;101342.88;;;20.41;54.31
61119;BME280;51448;51.660;5.824;2023-05-01T10:50:11;101345.19;;;20.62;55.63
61119;BME280;51448;51.660;5.824;2023-05-01T10:55:47;101337.81;;;21.08;54.94
61119;BME280;51448;51.660;5.824;2023-05-01T11:01:29;101336.91;;;21.22;53.21
61119;BME280;51448;51.660;5.824;2023-05-01T11:04:02;101333.28;;;21.23;53.18
61119;BME280;51448;51.660;5.824;2023-05-01T11:09:42;101327.44;;;21.58;53.41
61119;BME280;51448;51.660;5.824;2023-05-01T11:12:13;101332.25;;;21.93;54.38
61119;BME280;51448;51.660;5.824;2023-05-01T11:17:44;101323.19;;;22.47;53.53
61119;BME280;51448;51.660;5.824;2023-05-01T11:22:53;101319.78;;;22.32;51.94
61119;BME280;51448;51.660;5.824;2023-05-01T11:25:24;101321.16;;;22.25;52.76
61119;BME280;51448;51.660;5.824;2023-05-01T11:27:56;101322.88;;;22.26;52.92
61119;BME280;51448;51.660;5.824;2023-05-01T11:30:35;101324.81;;;22.24;52.80
61119;BME280;51448;51.660;5.824;2023-05-01T11:33:04;101316.94;;;22.21;53.04
61119;BME280;51448;51.660;5.824;2023-05-01T11:35:37;101317.31;;;22.29;52.87
61119;BME280;51448;51.660;5.824;2023-05-01T11:38:05;101314.84;;;22.26;52.67
61119;BME280;51448;51.660;5.824;2023-05-01T11:40:44;101313.94;;;22.13;52.55
61119;BME280;51448;51.660;5.824;2023-05-01T11:43:21;101326.66;;;21.96;52.85
61119;BME280;51448;51.660;5.824;2023-05-01T11:45:51;101325.16;;;21.79;52.88
61119;BME280;51448;51.660;5.824;2023-05-01T11:48:21;101320.44;;;21.70;52.98
61119;BME280;51448;51.660;5.824;2023-05-01T11:50:49;101325.22;;;21.65;53.15
61119;BME280;51448;51.660;5.824;2023-05-01T11:53:17;101323.81;;;21.59;53.33
61119;BME280;51448;51.660;5.824;2023-05-01T11:55:45;101318.84;;;21.53;53.10
61119;BME280;51448;51.660;5.824;2023-05-01T11:58:12;101325.78;;;21.43;53.21
61119;BME280;51448;51.660;5.824;2023-05-01T12:00:42;101323.13;;;21.28;52.25
61119;BME280;51448;51.660;5.824;2023-05-01T12:03:13;101320.78;;;21.09;52.81
61119;BME280;51448;51.660;5.824;2023-05-01T12:05:43;101319.00;;;20.96;53.29
61119;BME280;51448;51.660;5.824;2023-05-01T12:08:15;101320.34;;;21.03;54.02
61119;BME280;51448;51.660;5.824;2023-05-01T12:10:50;101319.16;;;21.21;53.52
61119;BME280;51448;51.660;5.824;2023-05-01T12:13:19;101316.38;;;21.23;53.21
61119;BME280;51448;51.660;5.824;2023-05-01T12:15:52;101320.97;;;21.21;53.28
61119;BME280;51448;51.660;5.824;2023-05-01T12:18:21;101320.25;;;21.04;52.08
61119;BME280;51448;51.660;5.824;2023-05-01T12:20:51;101319.31;;;20.77;52.44
61119;BME280;51448;51.660;5.824;2023-05-01T12:23:32;101315.22;;;20.71;52.72
61119;BME280;51448;51.660;5.824;2023-05-01T12:26:20;101318.75;;;20.86;53.93
61119;BME280;51448;51.660;5.824;2023-05-01T12:28:56;101314.63;;;20.95;52.19
61119;BME280;51448;51.660;5.824;2023-05-01T12:31:26;101320.53;;;20.85;52.70
61119;BME280;51448;51.660;5.824;2023-05-01T12:36:29;101315.41;;;20.82;53.21
61119;BME280;51448;51.660;5.824;2023-05-01T12:39:11;101319.53;;;20.74;53.55
61119;BME280;51448;51.660;5.824;2023-05-01T12:41:46;101318.75;;;20.57;53.89
61119;BME280;51448;51.660;5.824;2023-05-01T12:44:18;101315.19;;;20.57;54.27
61119;BME280;51448;51.660;5.824;2023-05-01T12:47:02;101319.78;;;20.69;54.56
61119;BME280;51448;51.660;5.824;2023-05-01T12:49:31;101321.31;;;20.73;54.20
61119;BME280;51448;51.660;5.824;2023-05-01T12:52:00;101326.56;;;20.75;54.30
61119;BME280;51448;51.660;5.824;2023-05-01T12:54:31;101327.44;;;20.75;52.73
61119;BME280;51448;51.660;5.824;2023-05-01T12:59:38;101329.72;;;20.67;52.76
61119;BME280;51448;51.660;5.824;2023-05-01T13:02:12;101323.19;;;20.57;52.30
61119;BME280;51448;51.660;5.824;2023-05-01T13:04:43;101319.97;;;20.52;52.48
61119;BME280;51448;51.660;5.824;2023-05-01T13:07:13;101331.59;;;20.50;52.15
61119;BME280;51448;51.660;5.824;2023-05-01T13:09:54;101339.44;;;20.54;53.21
61119;BME280;51448;51.660;5.824;2023-05-01T13:12:25;101332.00;;;20.59;52.74
61119;BME280;51448;51.660;5.824;2023-05-01T13:14:54;101342.44;;;20.63;52.29
61119;BME280;51448;51.660;5.824;2023-05-01T13:17:27;101343.47;;;20.61;50.51
61119;BME280;51448;51.660;5.824;2023-05-01T13:20:02;101332.00;;;20.59;51.15
61119;BME280;51448;51.660;5.824;2023-05-01T13:22:35;101344.22;;;20.63;51.23
61119;BME280;51448;51.660;5.824;2023-05-01T13:25:16;101344.53;;;20.73;50.70
61119;BME280;51448;51.660;5.824;2023-05-01T13:27:51;101334.50;;;20.76;50.21
61119;BME280;51448;51.660;5.824;2023-05-01T13:30:30;101343.19;;;20.80;50.37
61119;BME280;51448;51.660;5.824;2023-05-01T13:32:59;101347.50;;;20.82;49.79
61119;BME280;51448;51.660;5.824;2023-05-01T13:35:30;101340.31;;;20.83;49.15
61119;BME280;51448;51.660;5.824;2023-05-01T13:38:00;101348.91;;;20.88;49.73
61119;BME280;51448;51.660;5.824;2023-05-01T13:40:32;101357.50;;;20.93;49.41
61119;BME280;51448;51.660;5.824;2023-05-01T13:43:01;101366.09;;;20.98;49.30
61119;BME280;51448;51.660;5.824;2023-05-01T13:45:29;101367.63;;;21.02;48.47
61119;BME280;51448;51.660;5.824;2023-05-01T13:47:57;101363.88;;;21.05;48.59
61119;BME280;51448;51.660;5.824;2023-05-01T13:50:24;101360.06;;;21.09;48.80
61119;BME280;51448;51.660;5.824;2023-05-01T13:52:53;101365.19;;;21.12;48.98
61119;BME280;51448;51.660;5.824;2023-05-01T13:55:21;101365.41;;;21.09;48.97
61119;BME280;51448;51.660;5.824;2023-05-01T13:57:50;101366.56;;;21.05;50.59
61119;BME280;51448;51.660;5.824;2023-05-01T14:00:19;101364.19;;;21.00;50.19